createdAt,value
2022-10-15T00:01:40.324Z,14.80
2022-10-15T00:04:07.099Z,14.80
2022-10-15T00:06:35.225Z,14.90
2022-10-15T00:09:03.584Z,15.00
2022-10-15T00:11:32.359Z,14.90
2022-10-15T00:14:00.496Z,14.80
2022-10-15T00:16:29.048Z,14.70
2022-10-15T00:18:59.474Z,14.70
2022-10-15T00:21:27.719Z,14.70
2022-10-15T00:23:57.239Z,14.70
2022-10-15T00:26:26.625Z,14.60
2022-10-15T00:29:02.036Z,14.50
2022-10-15T00:31:32.024Z,14.40
2022-10-15T00:34:01.130Z,14.30
2022-10-15T00:36:31.124Z,14.30
2022-10-15T00:39:06.533Z,14.20
2022-10-15T00:41:36.838Z,14.30
2022-10-15T00:44:25.725Z,14.40
2022-10-15T00:47:13.110Z,14.50
2022-10-15T00:49:44.549Z,14.50
2022-10-15T00:52:16.420Z,14.50
2022-10-15T00:54:55.569Z,14.60
2022-10-15T00:57:22.506Z,14.70
2022-10-15T00:59:54.275Z,14.60
2022-10-15T01:02:23.200Z,14.70
2022-10-15T01:04:50.681Z,14.60
2022-10-15T01:09:49.837Z,14.60
2022-10-15T01:12:48.997Z,14.60
2022-10-15T01:15:24.785Z,14.70
2022-10-15T01:18:06.989Z,14.60
2022-10-15T01:21:11.727Z,14.60
2022-10-15T01:23:41.724Z,14.60
2022-10-15T01:26:34.583Z,14.60
2022-10-15T01:29:40.993Z,14.50
2022-10-15T01:32:16.486Z,14.50
2022-10-15T01:34:51.111Z,14.50
2022-10-15T01:37:26.439Z,14.50
2022-10-15T01:40:06.556Z,14.50
2022-10-15T01:42:57.170Z,14.50
2022-10-15T01:45:58.141Z,14.50
2022-10-15T01:48:29.545Z,14.60
2022-10-15T01:51:01.953Z,14.60
2022-10-15T01:53:34.291Z,14.50
2022-10-15T01:56:09.037Z,14.60
2022-10-15T01:58:40.997Z,14.60
2022-10-15T02:01:08.066Z,14.50
2022-10-15T02:03:45.612Z,14.50
2022-10-15T02:06:26.788Z,14.60
2022-10-15T02:09:10.870Z,14.60
2022-10-15T02:11:53.231Z,14.60
2022-10-15T02:14:30.877Z,14.50
2022-10-15T02:17:10.470Z,14.60
2022-10-15T02:22:43.829Z,14.70
2022-10-15T02:25:20.038Z,14.70
2022-10-15T02:27:49.561Z,14.80
2022-10-15T02:30:17.592Z,14.80
2022-10-15T02:32:48.452Z,14.80
2022-10-15T02:35:23.734Z,14.80
2022-10-15T02:37:54.105Z,14.80
2022-10-15T02:40:25.081Z,14.90
2022-10-15T02:42:52.139Z,15.00
2022-10-15T02:45:19.910Z,15.00
2022-10-15T02:47:46.944Z,14.90
2022-10-15T02:50:13.968Z,14.90
2022-10-15T02:52:41.038Z,14.70
2022-10-15T02:55:08.145Z,14.80
2022-10-15T02:57:35.190Z,14.90
2022-10-15T03:00:02.200Z,14.80
2022-10-15T03:02:29.173Z,15.00
2022-10-15T03:04:55.825Z,14.90
2022-10-15T03:07:28.240Z,14.90
2022-10-15T03:09:55.243Z,14.80
2022-10-15T03:12:27.736Z,14.80
2022-10-15T03:14:54.737Z,14.70
2022-10-15T03:17:21.948Z,14.70
2022-10-15T03:19:49.307Z,14.70
2022-10-15T03:22:17.187Z,14.70
2022-10-15T03:24:43.820Z,14.60
2022-10-15T03:27:10.767Z,14.60
2022-10-15T03:29:37.788Z,14.50
2022-10-15T03:32:04.993Z,14.50
2022-10-15T03:34:36.752Z,14.40
2022-10-15T03:37:03.508Z,14.30
2022-10-15T03:39:30.481Z,14.30
2022-10-15T03:41:57.562Z,14.20
2022-10-15T03:44:25.996Z,14.20
2022-10-15T03:46:52.832Z,14.20
2022-10-15T03:49:20.755Z,14.10
2022-10-15T03:51:47.757Z,14.10
2022-10-15T03:54:17.736Z,14.10
2022-10-15T03:56:45.600Z,14.20
2022-10-15T03:59:12.598Z,14.30
2022-10-15T04:01:39.268Z,14.40
2022-10-15T04:04:08.193Z,14.40
2022-10-15T04:06:35.037Z,14.40
2022-10-15T04:09:02.885Z,14.40
2022-10-15T04:11:29.877Z,14.40
2022-10-15T04:13:57.729Z,14.40
2022-10-15T04:16:25.620Z,14.30
2022-10-15T04:18:55.343Z,14.10
2022-10-15T04:21:22.317Z,14.00
2022-10-15T04:23:49.197Z,14.10
2022-10-15T04:26:19.307Z,14.10
2022-10-15T04:28:48.665Z,14.10
2022-10-15T04:31:17.793Z,14.10
2022-10-15T04:33:47.595Z,14.00
2022-10-15T04:36:14.525Z,14.00
2022-10-15T04:38:42.743Z,14.10
2022-10-15T04:41:12.529Z,14.10
2022-10-15T04:43:41.292Z,14.10
2022-10-15T04:46:16.042Z,14.10
2022-10-15T04:48:44.683Z,14.10
2022-10-15T04:51:20.953Z,14.00
2022-10-15T04:53:50.749Z,14.00
2022-10-15T04:56:23.685Z,14.10
2022-10-15T04:58:51.506Z,14.20
2022-10-15T05:01:19.969Z,14.20
2022-10-15T05:03:49.322Z,14.20
2022-10-15T05:06:21.157Z,14.20
2022-10-15T05:08:49.328Z,14.20
2022-10-15T05:11:24.007Z,14.20
2022-10-15T05:13:54.604Z,14.20
2022-10-15T05:16:23.680Z,14.10
2022-10-15T05:18:56.840Z,14.20
2022-10-15T05:21:23.899Z,14.30
2022-10-15T05:23:51.945Z,14.40
2022-10-15T05:26:22.505Z,14.40
2022-10-15T05:28:52.681Z,14.40
2022-10-15T05:31:22.229Z,14.40
2022-10-15T05:33:51.391Z,14.50
2022-10-15T05:36:27.248Z,14.50
2022-10-15T05:39:02.045Z,14.50
2022-10-15T05:41:34.556Z,14.60
2022-10-15T05:44:01.273Z,14.70
2022-10-15T05:46:28.494Z,14.70
2022-10-15T05:48:56.976Z,14.70
2022-10-15T05:51:26.488Z,14.60
2022-10-15T05:53:57.074Z,14.60
2022-10-15T05:56:33.272Z,14.60
2022-10-15T05:59:03.263Z,14.50
2022-10-15T06:01:29.981Z,14.60
2022-10-15T06:03:57.143Z,14.50
2022-10-15T06:06:26.469Z,14.60
2022-10-15T06:08:54.734Z,14.60
2022-10-15T06:11:22.145Z,14.70
2022-10-15T06:13:49.016Z,14.80
2022-10-15T06:16:20.836Z,14.70
2022-10-15T06:18:52.497Z,14.80
2022-10-15T06:21:19.458Z,14.80
2022-10-15T06:23:46.539Z,14.90
2022-10-15T06:26:13.662Z,14.90
2022-10-15T06:28:40.664Z,14.80
2022-10-15T06:31:08.143Z,15.10
2022-10-15T06:33:36.008Z,14.90
2022-10-15T06:36:05.302Z,15.00
2022-10-15T06:38:32.510Z,15.00
2022-10-15T06:41:00.020Z,15.00
2022-10-15T06:43:28.799Z,15.10
2022-10-15T06:46:00.223Z,15.10
2022-10-15T06:48:27.250Z,15.10
2022-10-15T06:50:54.247Z,14.90
2022-10-15T06:53:22.377Z,15.00
2022-10-15T06:55:49.280Z,15.10
2022-10-15T06:58:16.237Z,15.10
2022-10-15T07:00:42.877Z,15.10
2022-10-15T07:03:09.910Z,15.00
2022-10-15T07:05:36.547Z,14.90
2022-10-15T07:08:03.338Z,15.00
2022-10-15T07:10:30.360Z,14.90
2022-10-15T07:13:00.848Z,15.00
2022-10-15T07:15:28.629Z,14.90
2022-10-15T07:17:57.821Z,15.00
2022-10-15T07:20:24.699Z,15.00
2022-10-15T07:22:55.746Z,15.00
2022-10-15T07:25:23.164Z,15.00
2022-10-15T07:27:49.891Z,14.80
2022-10-15T07:30:16.899Z,14.90
2022-10-15T07:32:46.340Z,14.80
2022-10-15T07:35:13.676Z,14.80
2022-10-15T07:37:40.972Z,14.90
2022-10-15T07:40:08.315Z,14.90
2022-10-15T07:42:35.104Z,15.00
2022-10-15T07:45:02.022Z,14.90
2022-10-15T07:47:29.148Z,15.00
2022-10-15T07:49:56.231Z,14.90
2022-10-15T07:52:23.478Z,15.00
2022-10-15T07:54:50.604Z,15.00
2022-10-15T07:57:18.087Z,15.10
2022-10-15T07:59:44.725Z,15.00
2022-10-15T08:02:17.043Z,15.10
2022-10-15T08:04:43.752Z,15.20
2022-10-15T08:07:10.836Z,15.20
2022-10-15T08:09:37.977Z,15.20
2022-10-15T08:12:06.801Z,15.20
2022-10-15T08:14:34.817Z,15.30
2022-10-15T08:17:03.869Z,15.30
2022-10-15T08:19:30.925Z,15.40
2022-10-15T08:21:58.220Z,15.30
2022-10-15T08:24:25.203Z,15.40
2022-10-15T08:26:52.315Z,15.40
2022-10-15T08:29:19.117Z,15.40
2022-10-15T08:31:45.801Z,15.40
2022-10-15T08:34:12.842Z,15.50
2022-10-15T08:36:39.873Z,15.60
2022-10-15T08:39:07.492Z,15.70
2022-10-15T08:41:42.626Z,15.80
2022-10-15T08:44:27.074Z,15.80
2022-10-15T08:47:10.112Z,15.90
2022-10-15T08:49:53.681Z,16.00
2022-10-15T08:52:35.698Z,16.00
2022-10-15T08:55:03.018Z,16.10
2022-10-15T08:57:46.117Z,16.10
2022-10-15T09:00:16.005Z,16.20
2022-10-15T09:02:55.924Z,16.30
2022-10-15T09:05:33.173Z,16.30
2022-10-15T09:08:02.919Z,16.40
2022-10-15T09:10:43.769Z,16.50
2022-10-15T09:13:33.444Z,16.60
2022-10-15T09:16:05.341Z,16.60
2022-10-15T09:18:35.237Z,16.70
2022-10-15T09:21:05.554Z,16.80
2022-10-15T09:23:33.876Z,16.90
2022-10-15T09:26:12.781Z,17.00
2022-10-15T09:28:46.819Z,17.30
2022-10-15T09:31:18.326Z,17.50
2022-10-15T09:33:52.348Z,17.70
2022-10-15T09:36:31.281Z,17.90
2022-10-15T09:39:29.350Z,17.90
2022-10-15T09:42:20.933Z,17.90
2022-10-15T09:44:48.160Z,17.90
2022-10-15T09:47:33.354Z,17.70
2022-10-15T09:50:01.157Z,17.70
2022-10-15T09:52:48.375Z,17.70
2022-10-15T09:55:31.318Z,17.90
2022-10-15T09:58:04.884Z,17.90
2022-10-15T10:00:50.400Z,17.90
2022-10-15T10:03:17.409Z,18.10
2022-10-15T10:05:45.845Z,18.10
2022-10-15T10:08:27.714Z,18.10
2022-10-15T10:11:03.374Z,18.30
2022-10-15T10:13:45.592Z,18.60
2022-10-15T10:16:14.853Z,19.00
2022-10-15T10:18:50.254Z,19.50
2022-10-15T10:21:32.916Z,19.20
2022-10-15T10:24:18.510Z,19.20
2022-10-15T10:26:46.299Z,19.20
2022-10-15T10:29:32.930Z,19.00
2022-10-15T10:32:11.029Z,19.00
2022-10-15T10:34:37.890Z,18.80
2022-10-15T10:37:06.600Z,18.60
2022-10-15T10:39:35.600Z,18.40
2022-10-15T10:42:32.725Z,18.40
2022-10-15T10:45:20.914Z,18.70
2022-10-15T10:47:48.329Z,19.00
2022-10-15T10:50:40.480Z,19.30
2022-10-15T10:53:23.743Z,19.30
2022-10-15T10:55:54.161Z,19.10
2022-10-15T10:58:26.275Z,19.00
2022-10-15T11:00:55.683Z,19.00
2022-10-15T11:03:30.592Z,19.00
2022-10-15T11:06:23.701Z,19.00
2022-10-15T11:09:07.777Z,18.50
2022-10-15T11:12:04.631Z,18.60
2022-10-15T11:14:58.341Z,18.90
2022-10-15T11:18:02.587Z,19.00
2022-10-15T11:21:07.238Z,18.90
2022-10-15T11:24:12.505Z,19.00
2022-10-15T11:27:22.365Z,19.10
2022-10-15T11:30:04.158Z,19.30
2022-10-15T11:33:05.472Z,19.20
2022-10-15T11:35:53.942Z,19.10
2022-10-15T11:39:06.853Z,19.00
2022-10-15T11:41:39.344Z,19.00
2022-10-15T11:44:27.431Z,19.00
2022-10-15T11:47:16.093Z,19.10
2022-10-15T11:50:16.773Z,19.10
2022-10-15T11:53:09.742Z,19.20
2022-10-15T11:55:39.739Z,19.20
2022-10-15T11:58:13.599Z,19.30
2022-10-15T12:00:46.662Z,19.50
2022-10-15T12:03:24.837Z,19.40
2022-10-15T12:06:05.282Z,19.50
2022-10-15T12:08:36.085Z,19.50
2022-10-15T12:11:21.111Z,19.40
2022-10-15T12:14:13.250Z,19.30
2022-10-15T12:16:53.973Z,19.20
2022-10-15T12:19:34.251Z,19.80
2022-10-15T12:22:09.532Z,21.10
2022-10-15T12:24:47.316Z,22.10
2022-10-15T12:27:19.867Z,22.30
2022-10-15T12:30:11.773Z,22.50
2022-10-15T12:32:45.997Z,23.40
2022-10-15T12:35:16.086Z,24.00
2022-10-15T12:37:49.789Z,24.70
2022-10-15T12:40:22.765Z,25.30
2022-10-15T12:42:52.995Z,25.40
2022-10-15T12:45:39.213Z,24.70
2022-10-15T12:48:19.108Z,23.70
2022-10-15T12:50:46.197Z,23.00
2022-10-15T12:53:34.511Z,23.20
2022-10-15T12:56:23.745Z,24.40
2022-10-15T12:58:55.409Z,24.00
2022-10-15T13:01:22.324Z,23.70
2022-10-15T13:03:49.515Z,23.50
2022-10-15T13:06:24.865Z,23.50
2022-10-15T13:09:21.596Z,23.30
2022-10-15T13:11:53.642Z,22.90
2022-10-15T13:14:36.711Z,22.70
2022-10-15T13:17:15.549Z,22.50
2022-10-15T13:19:58.316Z,22.50
2022-10-15T13:22:29.853Z,22.60
2022-10-15T13:24:56.876Z,23.20
2022-10-15T13:27:30.794Z,24.00
2022-10-15T13:29:58.731Z,23.60
2022-10-15T13:32:28.862Z,22.80
2022-10-15T13:34:57.449Z,22.50
2022-10-15T13:37:32.575Z,21.70
2022-10-15T13:40:03.075Z,21.70
2022-10-15T13:42:33.633Z,21.50
2022-10-15T13:45:15.328Z,21.70
2022-10-15T13:47:47.264Z,23.60
2022-10-15T13:50:38.213Z,24.40
2022-10-15T13:53:25.341Z,23.80
2022-10-15T13:55:55.479Z,23.10
2022-10-15T13:58:29.218Z,23.60
2022-10-15T14:01:03.696Z,24.40
2022-10-15T14:03:32.064Z,23.70
2022-10-15T14:06:18.868Z,23.10
2022-10-15T14:08:47.409Z,22.50
2022-10-15T14:11:14.752Z,21.80
2022-10-15T14:13:52.304Z,21.40
2022-10-15T14:16:55.937Z,21.10
2022-10-15T14:19:29.653Z,21.20
2022-10-15T14:22:00.693Z,21.00
2022-10-15T14:24:39.535Z,20.80
2022-10-15T14:27:16.387Z,20.70
2022-10-15T14:29:51.898Z,20.40
2022-10-15T14:32:23.796Z,20.30
2022-10-15T14:34:52.557Z,20.00
2022-10-15T14:37:42.928Z,19.70
2022-10-15T14:40:10.140Z,19.60
2022-10-15T14:42:42.197Z,19.50
2022-10-15T14:45:18.130Z,19.30
2022-10-15T14:47:52.323Z,19.30
2022-10-15T14:50:20.739Z,19.20
2022-10-15T14:52:53.100Z,19.00
2022-10-15T14:55:33.065Z,18.90
2022-10-15T14:58:06.774Z,18.80
2022-10-15T15:00:44.660Z,18.90
2022-10-15T15:03:17.439Z,18.90
2022-10-15T15:05:48.892Z,18.90
2022-10-15T15:08:16.730Z,18.90
2022-10-15T15:13:24.709Z,19.10
2022-10-15T15:15:52.444Z,18.70
2022-10-15T15:18:28.276Z,18.70
2022-10-15T15:21:02.937Z,18.70
2022-10-15T15:23:30.161Z,18.60
2022-10-15T15:25:57.996Z,18.60
2022-10-15T15:28:27.383Z,18.60
2022-10-15T15:31:08.034Z,18.50
2022-10-15T15:33:36.741Z,18.40
2022-10-15T15:36:19.102Z,18.50
2022-10-15T15:38:51.647Z,18.40
2022-10-15T15:41:22.957Z,18.30
2022-10-15T15:43:50.616Z,18.30
2022-10-15T15:46:17.766Z,18.40
2022-10-15T15:48:59.860Z,18.40
2022-10-15T15:51:32.625Z,18.30
2022-10-15T15:53:59.464Z,18.30
2022-10-15T15:56:26.508Z,18.20
2022-10-15T15:58:53.556Z,18.20
2022-10-15T16:01:26.330Z,18.30
2022-10-15T16:03:54.168Z,18.20
2022-10-15T16:06:24.031Z,17.90
2022-10-15T16:08:54.780Z,17.70
2022-10-15T16:11:21.530Z,17.50
2022-10-15T16:13:48.453Z,17.40
2022-10-15T16:16:15.745Z,17.40
2022-10-15T16:18:47.958Z,17.40
2022-10-15T16:21:21.708Z,17.30
2022-10-15T16:23:57.595Z,17.20
2022-10-15T16:26:30.456Z,17.20
2022-10-15T16:28:57.415Z,17.20
2022-10-15T16:31:32.281Z,17.10
2022-10-15T16:34:04.107Z,17.00
2022-10-15T16:36:31.581Z,17.00
2022-10-15T16:39:00.085Z,16.90
2022-10-15T16:41:28.289Z,16.80
2022-10-15T16:44:02.085Z,16.70
2022-10-15T16:46:41.791Z,16.60
2022-10-15T16:49:09.385Z,16.50
2022-10-15T16:51:41.270Z,16.50
2022-10-15T16:54:16.059Z,16.50
2022-10-15T16:56:43.780Z,16.50
2022-10-15T16:59:11.833Z,16.40
2022-10-15T17:01:41.551Z,16.30
2022-10-15T17:04:10.880Z,16.30
2022-10-15T17:06:39.077Z,16.20
2022-10-15T17:09:08.088Z,16.20
2022-10-15T17:11:38.089Z,16.20
2022-10-15T17:14:12.526Z,16.20
2022-10-15T17:16:40.713Z,16.20
2022-10-15T17:19:10.090Z,16.20
2022-10-15T17:21:40.323Z,16.10
2022-10-15T17:24:12.644Z,16.00
2022-10-15T17:26:41.053Z,16.10
2022-10-15T17:29:16.259Z,16.10
2022-10-15T17:31:43.554Z,16.00
2022-10-15T17:34:13.172Z,16.00
2022-10-15T17:36:47.828Z,16.00
2022-10-15T17:39:17.635Z,15.90
2022-10-15T17:41:47.292Z,15.90
2022-10-15T17:44:14.214Z,15.90
2022-10-15T17:46:41.896Z,15.90
2022-10-15T17:49:13.875Z,15.90
2022-10-15T17:51:41.854Z,15.90
2022-10-15T17:54:14.880Z,16.00
2022-10-15T17:56:48.548Z,15.90
2022-10-15T17:59:15.262Z,15.90
2022-10-15T18:02:00.565Z,15.80
2022-10-15T18:04:31.934Z,15.80
2022-10-15T18:06:59.048Z,15.90
2022-10-15T18:09:27.301Z,15.90
2022-10-15T18:12:06.725Z,15.90
2022-10-15T18:14:34.816Z,15.80
2022-10-15T18:17:05.657Z,16.00
2022-10-15T18:19:32.646Z,16.20
2022-10-15T18:21:59.301Z,16.10
2022-10-15T18:24:26.283Z,16.10
2022-10-15T18:26:55.005Z,16.10
2022-10-15T18:29:22.431Z,16.10
2022-10-15T18:31:57.133Z,16.00
2022-10-15T18:34:25.596Z,15.90
2022-10-15T18:36:52.597Z,15.80
2022-10-15T18:39:19.861Z,15.70
2022-10-15T18:41:46.691Z,15.70
2022-10-15T18:44:17.688Z,15.70
2022-10-15T18:46:50.541Z,15.60
2022-10-15T18:49:22.967Z,15.60
2022-10-15T18:51:54.089Z,15.60
2022-10-15T18:54:21.263Z,15.50
2022-10-15T18:56:48.597Z,15.40
2022-10-15T18:59:17.360Z,15.40
2022-10-15T19:01:44.498Z,15.40
2022-10-15T19:04:14.807Z,15.40
2022-10-15T19:06:48.737Z,15.50
2022-10-15T19:09:19.684Z,15.40
2022-10-15T19:11:48.417Z,15.40
2022-10-15T19:14:15.861Z,15.50
2022-10-15T19:16:44.830Z,15.40
2022-10-15T19:19:19.775Z,15.40
2022-10-15T19:21:47.559Z,15.40
2022-10-15T19:24:17.063Z,15.50
2022-10-15T19:26:58.390Z,15.40
2022-10-15T19:29:33.008Z,15.30
2022-10-15T19:32:07.948Z,15.20
2022-10-15T19:34:38.638Z,15.20
2022-10-15T19:37:20.456Z,15.20
2022-10-15T19:39:52.847Z,15.30
2022-10-15T19:42:31.025Z,15.30
2022-10-15T19:45:08.672Z,15.20
2022-10-15T19:47:38.853Z,15.10
2022-10-15T19:50:16.203Z,15.10
2022-10-15T19:52:42.841Z,15.00
2022-10-15T19:55:10.108Z,15.00
2022-10-15T19:57:36.964Z,15.00
2022-10-15T20:00:05.524Z,15.00
2022-10-15T20:02:32.283Z,14.90
2022-10-15T20:05:01.021Z,14.90
2022-10-15T20:07:28.166Z,14.80
2022-10-15T20:09:55.885Z,14.80
2022-10-15T20:12:22.534Z,14.70
2022-10-15T20:14:51.320Z,14.70
2022-10-15T20:17:24.057Z,14.70
2022-10-15T20:19:56.794Z,14.70
2022-10-15T20:22:23.802Z,14.60
2022-10-15T20:24:51.771Z,14.60
2022-10-15T20:27:18.768Z,14.60
2022-10-15T20:29:46.633Z,14.50
2022-10-15T20:32:30.292Z,14.50
2022-10-15T20:35:00.458Z,14.50
2022-10-15T20:37:27.478Z,14.50
2022-10-15T20:39:54.514Z,14.50
2022-10-15T20:42:23.324Z,14.60
2022-10-15T20:44:50.838Z,14.60
2022-10-15T20:47:24.903Z,14.60
2022-10-15T20:49:56.704Z,14.40
2022-10-15T20:52:26.116Z,14.50
2022-10-15T20:55:01.509Z,14.50
2022-10-15T20:57:31.832Z,14.50
2022-10-15T20:59:59.497Z,14.50
2022-10-15T21:02:28.595Z,14.50
2022-10-15T21:04:56.567Z,14.50
2022-10-15T21:07:25.350Z,14.50
2022-10-15T21:09:54.234Z,14.50
2022-10-15T21:12:22.672Z,14.50
2022-10-15T21:14:51.419Z,14.50
2022-10-15T21:17:19.049Z,14.60
2022-10-15T21:19:50.329Z,14.60
2022-10-15T21:22:19.859Z,14.60
2022-10-15T21:24:50.916Z,14.60
2022-10-15T21:27:19.259Z,14.60
2022-10-15T21:29:53.662Z,14.60
2022-10-15T21:32:23.153Z,14.60
2022-10-15T21:34:54.004Z,14.60
2022-10-15T21:37:22.189Z,14.60
2022-10-15T21:39:51.457Z,14.50
2022-10-15T21:42:18.771Z,14.50
2022-10-15T21:44:45.974Z,14.50
2022-10-15T21:47:16.605Z,14.50
2022-10-15T21:49:45.906Z,14.50
2022-10-15T21:52:14.747Z,14.60
2022-10-15T21:54:43.585Z,14.50
2022-10-15T21:57:13.469Z,14.60
2022-10-15T21:59:41.454Z,14.70
2022-10-15T22:02:08.490Z,14.50
2022-10-15T22:04:37.611Z,14.50
2022-10-15T22:07:10.203Z,14.50
2022-10-15T22:09:43.843Z,14.40
2022-10-15T22:12:19.013Z,14.40
2022-10-15T22:14:50.466Z,14.40
2022-10-15T22:17:22.018Z,14.40
2022-10-15T22:19:51.895Z,14.40
2022-10-15T22:22:26.706Z,14.40
2022-10-15T22:24:54.909Z,14.40
2022-10-15T22:27:27.000Z,14.40
2022-10-15T22:29:58.758Z,14.50
2022-10-15T22:32:31.450Z,14.40
2022-10-15T22:35:07.713Z,14.40
2022-10-15T22:37:35.069Z,14.40
2022-10-15T22:40:05.258Z,14.40
2022-10-15T22:42:33.307Z,14.30
2022-10-15T22:45:03.759Z,14.40
2022-10-15T22:47:37.700Z,14.30
2022-10-15T22:50:08.478Z,14.30
2022-10-15T22:52:37.510Z,14.40
2022-10-15T22:55:09.455Z,14.40
2022-10-15T22:57:36.335Z,14.40
2022-10-15T23:00:09.625Z,14.40
2022-10-15T23:02:38.568Z,14.40
2022-10-15T23:05:07.049Z,14.40
2022-10-15T23:07:35.624Z,14.40
2022-10-15T23:10:03.097Z,14.30
2022-10-15T23:12:35.475Z,14.40
2022-10-15T23:15:05.596Z,14.40
2022-10-15T23:17:34.919Z,14.40
2022-10-15T23:20:03.432Z,14.40
2022-10-15T23:22:32.267Z,14.50
2022-10-15T23:24:59.759Z,14.60
2022-10-15T23:27:27.058Z,14.60
2022-10-15T23:30:14.077Z,14.50
2022-10-15T23:32:45.532Z,14.50
2022-10-15T23:35:17.337Z,14.50
2022-10-15T23:37:47.852Z,14.40
2022-10-15T23:40:14.900Z,14.50
2022-10-15T23:42:42.193Z,14.40
2022-10-15T23:45:18.635Z,14.40
2022-10-15T23:47:48.261Z,14.30
2022-10-15T23:50:15.308Z,14.30
2022-10-15T23:52:43.581Z,14.30
2022-10-15T23:55:13.070Z,14.30
2022-10-15T23:57:44.814Z,14.30
